createdAt,value
2022-09-06T00:00:01.734Z,17.38
2022-09-06T00:02:39.825Z,17.19
2022-09-06T00:05:08.231Z,17.17
2022-09-06T00:07:35.607Z,16.77
2022-09-06T00:10:03.281Z,16.63
2022-09-06T00:12:30.649Z,16.30
2022-09-06T00:14:57.807Z,16.02
2022-09-06T00:17:24.950Z,16.00
2022-09-06T00:19:52.030Z,15.97
2022-09-06T00:22:19.029Z,15.98
2022-09-06T00:24:46.020Z,15.79
2022-09-06T00:27:13.059Z,16.05
2022-09-06T00:29:40.368Z,16.30
2022-09-06T00:32:08.575Z,15.93
2022-09-06T00:34:35.602Z,16.21
2022-09-06T00:37:02.568Z,16.08
2022-09-06T00:39:29.586Z,16.38
2022-09-06T00:41:56.574Z,16.32
2022-09-06T00:44:23.656Z,16.27
2022-09-06T00:46:54.336Z,16.20
2022-09-06T00:49:35.114Z,16.33
2022-09-06T00:52:08.223Z,16.28
2022-09-06T00:54:35.699Z,16.11
2022-09-06T00:57:03.139Z,15.89
2022-09-06T00:59:33.659Z,15.68
2022-09-06T01:02:00.728Z,15.49
2022-09-06T01:04:29.289Z,15.54
2022-09-06T01:07:12.978Z,15.74
2022-09-06T01:09:58.323Z,15.79
2022-09-06T01:12:50.400Z,15.84
2022-09-06T01:15:32.231Z,15.88
2022-09-06T01:18:09.288Z,15.57
2022-09-06T01:20:44.890Z,15.39
2022-09-06T01:23:14.690Z,15.83
2022-09-06T01:26:10.827Z,15.77
2022-09-06T01:28:40.489Z,15.46
2022-09-06T01:31:25.890Z,14.89
2022-09-06T01:33:58.697Z,14.90
2022-09-06T01:36:30.591Z,15.20
2022-09-06T01:38:57.644Z,15.27
2022-09-06T01:41:24.653Z,15.29
2022-09-06T01:43:53.958Z,15.29
2022-09-06T01:46:39.596Z,15.45
2022-09-06T01:49:25.487Z,15.44
2022-09-06T01:52:01.478Z,15.88
2022-09-06T01:54:59.745Z,16.14
2022-09-06T01:57:41.810Z,16.10
2022-09-06T02:00:20.006Z,15.86
2022-09-06T02:02:52.996Z,15.36
2022-09-06T02:05:41.563Z,15.18
2022-09-06T02:08:13.410Z,15.00
2022-09-06T02:10:50.058Z,14.99
2022-09-06T02:13:19.492Z,14.95
2022-09-06T02:16:08.456Z,14.87
2022-09-06T02:18:51.561Z,14.86
2022-09-06T02:21:25.251Z,15.02
2022-09-06T02:23:56.020Z,15.13
2022-09-06T02:26:27.656Z,15.24
2022-09-06T02:28:55.477Z,15.30
2022-09-06T02:31:37.768Z,14.97
2022-09-06T02:34:05.853Z,15.04
2022-09-06T02:36:35.735Z,15.39
2022-09-06T02:39:03.223Z,15.51
2022-09-06T02:41:31.224Z,15.44
2022-09-06T02:43:58.394Z,15.15
2022-09-06T02:46:25.497Z,14.79
2022-09-06T02:48:52.484Z,14.46
2022-09-06T02:51:20.775Z,14.17
2022-09-06T02:53:47.814Z,13.90
2022-09-06T02:56:15.065Z,14.07
2022-09-06T02:58:42.170Z,13.97
2022-09-06T03:01:09.378Z,14.26
2022-09-06T03:03:36.446Z,14.46
2022-09-06T03:06:03.599Z,14.48
2022-09-06T03:08:33.706Z,14.52
2022-09-06T03:11:01.448Z,14.62
2022-09-06T03:13:29.082Z,14.65
2022-09-06T03:15:58.712Z,14.37
2022-09-06T03:18:28.481Z,14.11
2022-09-06T03:20:56.532Z,14.13
2022-09-06T03:23:25.987Z,13.79
2022-09-06T03:25:53.753Z,13.94
2022-09-06T03:28:22.105Z,14.09
2022-09-06T03:30:51.749Z,14.51
2022-09-06T03:33:20.355Z,14.86
2022-09-06T03:35:49.701Z,15.05
2022-09-06T03:38:17.615Z,15.16
2022-09-06T03:40:46.742Z,14.90
2022-09-06T03:43:15.639Z,14.74
2022-09-06T03:45:49.048Z,14.84
2022-09-06T03:48:17.280Z,14.81
2022-09-06T03:50:49.423Z,14.85
2022-09-06T03:53:17.650Z,14.89
2022-09-06T03:55:46.932Z,14.89
2022-09-06T03:58:14.681Z,14.80
2022-09-06T04:00:41.683Z,14.58
2022-09-06T04:03:09.064Z,14.89
2022-09-06T04:05:36.117Z,15.06
2022-09-06T04:08:03.539Z,15.05
2022-09-06T04:10:30.474Z,15.00
2022-09-06T04:12:57.453Z,14.62
2022-09-06T04:15:24.406Z,14.58
2022-09-06T04:17:51.409Z,14.76
2022-09-06T04:20:18.438Z,15.05
2022-09-06T04:22:45.507Z,15.24
2022-09-06T04:25:13.915Z,15.12
2022-09-06T04:27:41.006Z,15.46
2022-09-06T04:30:08.661Z,14.98
2022-09-06T04:32:35.677Z,14.80
2022-09-06T04:35:02.694Z,14.94
2022-09-06T04:37:29.688Z,15.28
2022-09-06T04:39:56.672Z,15.66
2022-09-06T04:42:23.693Z,16.00
2022-09-06T04:44:50.702Z,16.22
2022-09-06T04:47:19.353Z,16.58
2022-09-06T04:49:46.613Z,16.80
2022-09-06T04:52:13.589Z,16.87
2022-09-06T04:54:40.548Z,16.92
2022-09-06T04:57:07.722Z,16.96
2022-09-06T04:59:34.818Z,17.02
2022-09-06T05:02:02.065Z,17.27
2022-09-06T05:04:29.065Z,17.38
2022-09-06T05:07:08.224Z,17.60
2022-09-06T05:09:36.930Z,17.41
2022-09-06T05:12:04.243Z,17.19
2022-09-06T05:14:31.270Z,17.10
2022-09-06T05:16:58.439Z,17.95
2022-09-06T05:19:25.483Z,19.34
2022-09-06T05:21:52.910Z,19.70
2022-09-06T05:24:19.974Z,20.51
2022-09-06T05:26:46.940Z,21.49
2022-09-06T05:29:13.901Z,22.00
2022-09-06T05:31:40.970Z,21.99
2022-09-06T05:34:07.994Z,23.16
2022-09-06T05:36:35.687Z,23.43
2022-09-06T05:39:02.657Z,22.88
2022-09-06T05:41:29.686Z,23.33
2022-09-06T05:43:56.880Z,24.18
2022-09-06T05:46:23.902Z,24.64
2022-09-06T05:49:04.783Z,24.13
2022-09-06T05:51:32.906Z,23.74
2022-09-06T05:54:00.322Z,22.98
2022-09-06T05:56:27.338Z,23.04
2022-09-06T05:58:54.297Z,22.55
2022-09-06T06:01:26.927Z,22.13
2022-09-06T06:03:57.620Z,22.25
2022-09-06T06:06:26.094Z,22.02
2022-09-06T06:08:53.403Z,22.52
2022-09-06T06:11:20.833Z,22.56
2022-09-06T06:13:47.802Z,22.68
2022-09-06T06:16:17.051Z,23.30
2022-09-06T06:18:51.709Z,23.95
2022-09-06T06:21:22.210Z,24.21
2022-09-06T06:23:58.342Z,25.21
2022-09-06T06:26:26.377Z,25.11
2022-09-06T06:28:54.077Z,25.89
2022-09-06T06:31:24.250Z,25.10
2022-09-06T06:33:51.409Z,25.08
2022-09-06T06:36:24.542Z,25.24
2022-09-06T06:38:56.119Z,24.83
2022-09-06T06:41:25.499Z,25.41
2022-09-06T06:43:57.082Z,25.84
2022-09-06T06:46:26.166Z,26.09
2022-09-06T06:48:55.326Z,26.30
2022-09-06T06:51:31.276Z,26.65
2022-09-06T06:53:58.744Z,28.70
2022-09-06T06:56:31.924Z,31.05
2022-09-06T06:59:01.428Z,30.41
2022-09-06T07:01:31.421Z,31.27
2022-09-06T07:03:59.054Z,31.40
2022-09-06T07:09:18.955Z,31.68
2022-09-06T07:11:48.836Z,28.73
2022-09-06T07:14:16.945Z,28.38
2022-09-06T07:16:44.529Z,28.86
2022-09-06T07:22:02.763Z,30.27
2022-09-06T07:24:32.164Z,31.42
2022-09-06T07:29:46.085Z,31.82
2022-09-06T07:32:13.345Z,29.37
2022-09-06T07:34:40.375Z,28.45
2022-09-06T07:37:07.574Z,26.36
2022-09-06T07:39:36.203Z,25.94
2022-09-06T07:42:03.811Z,26.81
2022-09-06T07:44:30.756Z,29.58
2022-09-06T07:55:18.853Z,30.04
2022-09-06T07:57:45.813Z,29.98
2022-09-06T08:00:12.994Z,30.13
2022-09-06T08:02:41.038Z,28.52
2022-09-06T08:10:42.505Z,26.37
2022-09-06T08:13:09.493Z,28.14
2022-09-06T08:15:36.406Z,28.46
2022-09-06T08:18:03.386Z,28.44
2022-09-06T08:20:30.503Z,29.47
2022-09-06T08:22:57.566Z,29.47
2022-09-06T08:25:25.849Z,28.93
2022-09-06T08:27:52.823Z,30.21
2022-09-06T08:30:19.841Z,31.95
2022-09-06T08:32:46.763Z,30.80
2022-09-06T08:35:13.957Z,31.25
2022-09-06T08:37:40.897Z,30.59
2022-09-06T08:40:08.613Z,31.84
2022-09-06T08:42:41.883Z,31.34
2022-09-06T08:45:12.639Z,29.40
2022-09-06T08:47:39.800Z,30.66
2022-09-06T08:50:08.742Z,30.40
2022-09-06T08:53:15.722Z,29.86
2022-09-06T08:56:13.390Z,26.99
2022-09-06T08:59:05.134Z,25.83
2022-09-06T09:02:15.010Z,25.57
2022-09-06T09:04:56.255Z,25.55
2022-09-06T09:07:41.686Z,25.77
2022-09-06T09:10:32.714Z,25.95
2022-09-06T09:13:03.992Z,25.93
2022-09-06T09:15:31.210Z,25.78
2022-09-06T09:18:00.396Z,26.04
2022-09-06T09:20:27.895Z,25.74
2022-09-06T09:22:55.907Z,25.70
2022-09-06T09:25:24.110Z,24.78
2022-09-06T09:27:59.624Z,24.63
2022-09-06T09:33:22.796Z,23.49
2022-09-06T09:35:50.433Z,22.73
2022-09-06T09:38:24.561Z,22.75
2022-09-06T09:41:01.839Z,23.06
2022-09-06T09:43:32.729Z,23.43
2022-09-06T09:46:28.903Z,24.36
2022-09-06T09:49:09.969Z,26.02
2022-09-06T09:52:04.164Z,24.22
2022-09-06T09:54:33.385Z,23.91
2022-09-06T09:57:00.385Z,24.52
2022-09-06T09:59:46.810Z,23.92
2022-09-06T10:02:25.937Z,24.43
2022-09-06T10:05:00.613Z,23.43
2022-09-06T10:07:28.200Z,22.86
2022-09-06T10:10:13.765Z,23.45
2022-09-06T10:12:42.692Z,23.55
2022-09-06T10:15:12.852Z,22.77
2022-09-06T10:17:51.209Z,23.20
2022-09-06T10:20:19.106Z,24.42
2022-09-06T10:26:23.942Z,24.95
2022-09-06T10:28:59.505Z,24.98
2022-09-06T10:31:36.743Z,24.77
2022-09-06T10:34:18.653Z,24.71
2022-09-06T10:36:59.329Z,25.43
2022-09-06T10:39:55.185Z,23.05
2022-09-06T10:42:39.982Z,23.25
2022-09-06T10:45:39.204Z,23.25
2022-09-06T10:48:14.880Z,23.09
2022-09-06T10:50:51.275Z,22.82
2022-09-06T10:53:40.128Z,23.92
2022-09-06T10:56:10.415Z,23.56
2022-09-06T11:01:58.011Z,23.41
2022-09-06T11:04:32.419Z,23.53
2022-09-06T11:07:02.658Z,24.80
2022-09-06T11:09:43.889Z,24.91
2022-09-06T11:12:19.612Z,25.07
2022-09-06T11:14:47.937Z,25.52
2022-09-06T11:17:26.865Z,25.24
2022-09-06T11:20:02.683Z,25.42
2022-09-06T11:22:51.175Z,25.41
2022-09-06T11:25:42.887Z,26.22
2022-09-06T11:28:18.890Z,26.29
2022-09-06T11:30:49.186Z,27.24
2022-09-06T11:33:28.376Z,26.83
2022-09-06T11:36:20.515Z,26.05
2022-09-06T11:39:02.431Z,25.44
2022-09-06T11:41:33.405Z,25.42
2022-09-06T11:44:01.193Z,25.88
2022-09-06T11:46:34.056Z,26.12
2022-09-06T11:49:03.451Z,25.31
2022-09-06T11:51:39.391Z,25.38
2022-09-06T11:54:15.305Z,26.10
2022-09-06T11:56:48.294Z,25.98
2022-09-06T11:59:19.097Z,27.38
2022-09-06T12:02:03.202Z,26.35
2022-09-06T12:05:07.550Z,26.55
2022-09-06T12:07:36.808Z,26.03
2022-09-06T12:10:31.387Z,26.00
2022-09-06T12:12:58.915Z,26.43
2022-09-06T12:15:55.411Z,26.97
2022-09-06T12:18:43.799Z,26.47
2022-09-06T12:21:31.217Z,26.52
2022-09-06T12:23:58.561Z,26.77
2022-09-06T12:26:54.480Z,27.53
2022-09-06T12:29:27.012Z,26.44
2022-09-06T12:31:58.563Z,27.80
2022-09-06T12:34:29.195Z,26.48
2022-09-06T12:37:00.350Z,25.74
2022-09-06T12:39:27.972Z,25.68
2022-09-06T12:42:05.057Z,25.73
2022-09-06T12:44:39.063Z,26.63
2022-09-06T12:47:23.863Z,27.28
2022-09-06T12:50:15.327Z,28.01
2022-09-06T12:52:58.029Z,25.60
2022-09-06T12:55:27.300Z,24.99
2022-09-06T12:57:56.874Z,24.83
2022-09-06T13:00:26.697Z,25.12
2022-09-06T13:03:30.972Z,25.71
2022-09-06T13:06:00.814Z,24.45
2022-09-06T13:08:44.687Z,24.42
2022-09-06T13:11:14.876Z,24.40
2022-09-06T13:13:51.284Z,24.70
2022-09-06T13:16:32.046Z,24.15
2022-09-06T13:19:15.810Z,24.04
2022-09-06T13:21:44.678Z,23.72
2022-09-06T13:24:25.163Z,23.64
2022-09-06T13:26:53.254Z,23.84
2022-09-06T13:29:25.307Z,23.84
2022-09-06T13:31:55.041Z,23.67
2022-09-06T13:34:31.666Z,23.72
2022-09-06T13:37:08.128Z,23.77
2022-09-06T13:39:38.032Z,23.21
2022-09-06T13:42:10.748Z,23.39
2022-09-06T13:44:39.538Z,23.73
2022-09-06T13:47:06.744Z,23.63
2022-09-06T13:49:34.153Z,23.85
2022-09-06T13:52:03.903Z,23.82
2022-09-06T13:54:32.398Z,23.15
2022-09-06T13:57:01.792Z,23.14
2022-09-06T13:59:30.421Z,23.38
2022-09-06T14:02:03.909Z,23.27
2022-09-06T14:04:32.695Z,23.64
2022-09-06T14:06:59.927Z,23.43
2022-09-06T14:09:26.936Z,23.10
2022-09-06T14:11:54.043Z,23.11
2022-09-06T14:14:21.180Z,23.21
2022-09-06T14:16:48.251Z,23.02
2022-09-06T14:19:15.751Z,23.04
2022-09-06T14:21:43.425Z,23.30
2022-09-06T14:24:10.427Z,23.01
2022-09-06T14:26:38.778Z,22.56
2022-09-06T14:29:06.350Z,22.50
2022-09-06T14:31:33.347Z,22.48
2022-09-06T14:34:02.095Z,22.53
2022-09-06T14:36:30.567Z,22.53
2022-09-06T14:38:59.808Z,22.37
2022-09-06T14:41:27.707Z,22.53
2022-09-06T14:43:57.464Z,22.29
2022-09-06T14:46:25.956Z,22.56
2022-09-06T14:49:03.214Z,22.12
2022-09-06T14:51:30.979Z,22.33
2022-09-06T14:54:03.533Z,22.17
2022-09-06T14:56:30.840Z,22.54
2022-09-06T14:59:00.115Z,22.51
2022-09-06T15:01:38.057Z,22.93
2022-09-06T15:04:08.618Z,22.72
2022-09-06T15:06:37.201Z,22.48
2022-09-06T15:09:06.061Z,22.45
2022-09-06T15:11:39.492Z,22.80
2022-09-06T15:14:12.378Z,22.05
2022-09-06T15:16:39.465Z,21.90
2022-09-06T15:19:07.947Z,21.91
2022-09-06T15:21:35.255Z,21.91
2022-09-06T15:24:03.397Z,21.89
2022-09-06T15:26:30.973Z,21.77
2022-09-06T15:28:57.913Z,21.99
2022-09-06T15:31:25.307Z,21.84
2022-09-06T15:33:52.925Z,21.69
2022-09-06T15:36:20.917Z,21.87
2022-09-06T15:38:49.806Z,21.64
2022-09-06T15:41:23.565Z,22.00
2022-09-06T15:43:53.618Z,21.52
2022-09-06T15:46:43.031Z,21.74
2022-09-06T15:49:12.640Z,21.54
2022-09-06T15:51:42.144Z,21.43
2022-09-06T15:54:11.227Z,21.42
2022-09-06T15:56:38.327Z,21.43
2022-09-06T15:59:05.737Z,21.27
2022-09-06T16:01:35.933Z,21.13
2022-09-06T16:04:06.060Z,21.01
2022-09-06T16:06:39.858Z,20.98
2022-09-06T16:09:10.214Z,20.97
2022-09-06T16:11:37.520Z,20.91
2022-09-06T16:14:07.109Z,20.95
2022-09-06T16:16:35.997Z,20.78
2022-09-06T16:19:03.198Z,20.67
2022-09-06T16:21:32.448Z,20.90
2022-09-06T16:24:02.445Z,20.72
2022-09-06T16:26:38.348Z,20.68
2022-09-06T16:29:07.217Z,20.57
2022-09-06T16:31:39.330Z,20.40
2022-09-06T16:34:07.885Z,20.50
2022-09-06T16:36:35.041Z,20.38
2022-09-06T16:39:02.254Z,20.14
2022-09-06T16:41:33.346Z,20.20
2022-09-06T16:44:00.343Z,20.22
2022-09-06T16:46:28.994Z,20.15
2022-09-06T16:49:00.169Z,20.05
2022-09-06T16:51:28.061Z,20.12
2022-09-06T16:53:56.024Z,20.09
2022-09-06T16:56:25.698Z,20.15
2022-09-06T16:58:57.717Z,20.15
2022-09-06T17:01:26.775Z,20.13
2022-09-06T17:03:54.130Z,20.32
2022-09-06T17:06:22.106Z,20.03
2022-09-06T17:08:49.080Z,20.29
2022-09-06T17:11:18.584Z,20.06
2022-09-06T17:13:47.580Z,20.17
2022-09-06T17:16:33.765Z,20.53
2022-09-06T17:19:01.483Z,20.88
2022-09-06T17:21:29.858Z,21.12
2022-09-06T17:24:04.729Z,21.08
2022-09-06T17:26:32.544Z,21.02
2022-09-06T17:28:59.597Z,21.25
2022-09-06T17:31:27.359Z,21.15
2022-09-06T17:33:54.386Z,21.08
2022-09-06T17:36:24.028Z,21.07
2022-09-06T17:38:53.523Z,20.98
2022-09-06T17:41:43.184Z,20.49
2022-09-06T17:44:11.874Z,20.53
2022-09-06T17:46:51.928Z,20.73
2022-09-06T17:49:24.806Z,20.67
2022-09-06T17:51:52.281Z,20.66
2022-09-06T17:54:19.462Z,20.65
2022-09-06T17:56:46.453Z,20.79
2022-09-06T17:59:15.561Z,20.99
2022-09-06T18:01:45.536Z,21.02
2022-09-06T18:04:14.654Z,21.13
2022-09-06T18:06:43.274Z,21.12
2022-09-06T18:09:14.783Z,20.94
2022-09-06T18:11:45.691Z,20.73
2022-09-06T18:14:19.033Z,20.45
2022-09-06T18:16:49.285Z,20.32
2022-09-06T18:19:17.950Z,20.51
2022-09-06T18:21:45.836Z,20.63
2022-09-06T18:24:14.093Z,20.59
2022-09-06T18:26:42.088Z,20.65
2022-09-06T18:29:13.353Z,20.72
2022-09-06T18:31:41.557Z,20.51
2022-09-06T18:34:09.601Z,19.97
2022-09-06T18:36:38.074Z,19.81
2022-09-06T18:39:05.729Z,19.93
2022-09-06T18:41:52.296Z,20.21
2022-09-06T18:44:19.910Z,20.18
2022-09-06T18:46:48.460Z,20.08
2022-09-06T18:49:16.789Z,19.99
2022-09-06T18:51:45.001Z,19.74
2022-09-06T18:54:12.441Z,19.26
2022-09-06T18:56:39.873Z,19.38
2022-09-06T18:59:07.801Z,19.19
2022-09-06T19:01:35.438Z,19.35
2022-09-06T19:04:04.321Z,19.35
2022-09-06T19:06:33.481Z,19.50
2022-09-06T19:09:02.809Z,19.47
2022-09-06T19:11:30.339Z,19.18
2022-09-06T19:13:58.194Z,18.92
2022-09-06T19:16:27.246Z,18.88
2022-09-06T19:18:56.433Z,18.57
2022-09-06T19:21:28.279Z,18.69
2022-09-06T19:24:03.951Z,18.95
2022-09-06T19:26:34.604Z,19.30
2022-09-06T19:29:04.208Z,19.44
2022-09-06T19:31:34.516Z,19.31
2022-09-06T19:34:02.835Z,19.27
2022-09-06T19:36:30.587Z,19.12
2022-09-06T19:39:04.304Z,19.22
2022-09-06T19:41:38.057Z,19.06
2022-09-06T19:44:08.819Z,19.02
2022-09-06T19:46:37.463Z,19.32
2022-09-06T19:49:08.317Z,19.41
2022-09-06T19:51:36.672Z,19.35
2022-09-06T19:54:04.155Z,19.20
2022-09-06T19:56:35.962Z,18.79
2022-09-06T19:59:08.729Z,18.52
2022-09-06T20:01:37.902Z,18.47
2022-09-06T20:04:07.480Z,18.63
2022-09-06T20:06:35.605Z,18.66
2022-09-06T20:09:05.356Z,18.84
2022-09-06T20:11:34.471Z,18.90
2022-09-06T20:14:01.738Z,18.48
2022-09-06T20:16:30.657Z,18.32
2022-09-06T20:19:02.120Z,18.24
2022-09-06T20:21:30.082Z,18.16
2022-09-06T20:23:59.177Z,18.30
2022-09-06T20:26:28.714Z,18.15
2022-09-06T20:29:00.377Z,18.38
2022-09-06T20:31:29.095Z,18.58
2022-09-06T20:33:56.889Z,18.61
2022-09-06T20:36:23.929Z,18.67
2022-09-06T20:38:51.279Z,18.63
2022-09-06T20:41:20.910Z,18.08
2022-09-06T20:43:52.773Z,18.19
2022-09-06T20:46:22.217Z,17.90
2022-09-06T20:48:49.283Z,18.31
2022-09-06T20:51:19.493Z,17.97
2022-09-06T20:53:51.357Z,17.85
2022-09-06T20:56:21.699Z,17.94
2022-09-06T20:58:54.134Z,17.99
2022-09-06T21:01:24.109Z,17.80
2022-09-06T21:03:54.151Z,17.40
2022-09-06T21:06:22.599Z,17.67
2022-09-06T21:08:50.185Z,18.04
2022-09-06T21:11:17.891Z,17.61
2022-09-06T21:13:49.828Z,17.65
2022-09-06T21:16:21.811Z,17.51
2022-09-06T21:18:59.939Z,17.05
2022-09-06T21:21:29.047Z,16.76
2022-09-06T21:23:56.412Z,16.49
2022-09-06T21:26:23.888Z,16.84
2022-09-06T21:28:53.428Z,17.31
2022-09-06T21:31:23.056Z,16.96
2022-09-06T21:33:55.675Z,16.84
2022-09-06T21:36:30.115Z,16.89
2022-09-06T21:38:59.709Z,16.98
2022-09-06T21:41:27.784Z,17.29
2022-09-06T21:44:00.124Z,17.41
2022-09-06T21:46:32.887Z,16.90
2022-09-06T21:49:04.070Z,16.80
2022-09-06T21:51:31.957Z,16.90
2022-09-06T21:53:59.397Z,16.87
2022-09-06T21:56:26.762Z,16.53
2022-09-06T21:58:56.134Z,16.39
2022-09-06T22:01:24.551Z,16.66
2022-09-06T22:03:52.042Z,16.42
2022-09-06T22:06:21.951Z,16.35
2022-09-06T22:08:49.457Z,16.46
2022-09-06T22:11:19.467Z,16.46
2022-09-06T22:13:47.706Z,16.02
2022-09-06T22:16:16.601Z,15.98
2022-09-06T22:18:45.016Z,16.21
2022-09-06T22:21:21.140Z,16.22
2022-09-06T22:23:51.829Z,16.18
2022-09-06T22:26:19.634Z,15.94
2022-09-06T22:28:46.845Z,15.53
2022-09-06T22:31:14.201Z,15.56
2022-09-06T22:33:41.181Z,15.36
2022-09-06T22:36:08.414Z,15.23
2022-09-06T22:38:35.404Z,15.47
2022-09-06T22:41:02.544Z,15.73
2022-09-06T22:43:29.515Z,15.88
2022-09-06T22:46:08.011Z,15.92
2022-09-06T22:48:35.906Z,16.19
2022-09-06T22:51:04.201Z,16.28
2022-09-06T22:53:31.684Z,16.12
2022-09-06T22:55:58.983Z,15.96
2022-09-06T22:58:29.211Z,15.98
2022-09-06T23:00:57.002Z,15.99
2022-09-06T23:03:24.055Z,16.05
2022-09-06T23:05:51.132Z,16.36
2022-09-06T23:08:18.157Z,16.71
2022-09-06T23:10:45.154Z,16.97
2022-09-06T23:13:12.149Z,16.32
2022-09-06T23:15:46.466Z,16.03
2022-09-06T23:18:14.594Z,16.01
2022-09-06T23:20:42.006Z,15.61
2022-09-06T23:23:09.018Z,15.02
2022-09-06T23:25:39.546Z,14.89
2022-09-06T23:28:07.077Z,15.40
2022-09-06T23:30:37.848Z,15.72
2022-09-06T23:33:05.082Z,15.48
2022-09-06T23:35:32.139Z,15.72
2022-09-06T23:37:59.171Z,15.86
2022-09-06T23:40:26.135Z,16.09
2022-09-06T23:42:53.087Z,16.04
2022-09-06T23:45:20.167Z,15.47
2022-09-06T23:47:47.148Z,15.38
2022-09-06T23:50:14.289Z,15.54
2022-09-06T23:52:41.290Z,15.85
2022-09-06T23:55:09.475Z,15.91
2022-09-06T23:57:36.710Z,15.96
